createdAt,value
2022-08-09T00:01:00.153Z,17.50
2022-08-09T00:04:10.181Z,17.40
2022-08-09T00:06:22.924Z,17.40
2022-08-09T00:08:52.274Z,17.40
2022-08-09T00:11:24.358Z,17.30
2022-08-09T00:13:55.608Z,17.30
2022-08-09T00:16:26.539Z,17.20
2022-08-09T00:19:10.202Z,17.20
2022-08-09T00:21:55.467Z,17.20
2022-08-09T00:24:24.946Z,17.10
2022-08-09T00:26:56.030Z,17.10
2022-08-09T00:29:39.390Z,17.10
2022-08-09T00:32:25.281Z,17.10
2022-08-09T00:34:53.695Z,17.10
2022-08-09T00:37:21.854Z,17.10
2022-08-09T00:40:09.321Z,17.00
2022-08-09T00:44:25.434Z,16.90
2022-08-09T00:45:30.105Z,16.80
2022-08-09T00:48:03.691Z,16.80
2022-08-09T00:50:32.156Z,16.80
2022-08-09T00:53:00.679Z,16.80
2022-08-09T00:56:05.164Z,16.80
2022-08-09T00:58:30.537Z,16.70
2022-08-09T01:01:03.221Z,16.70
2022-08-09T01:03:46.480Z,16.70
2022-08-09T01:06:22.041Z,16.70
2022-08-09T01:09:03.502Z,16.70
2022-08-09T01:11:53.261Z,16.70
2022-08-09T01:14:31.402Z,16.70
2022-08-09T01:17:09.141Z,16.70
2022-08-09T01:20:01.451Z,16.60
2022-08-09T01:22:56.263Z,16.60
2022-08-09T01:25:48.890Z,16.50
2022-08-09T01:28:22.493Z,16.40
2022-08-09T01:30:58.254Z,16.40
2022-08-09T01:33:30.315Z,16.30
2022-08-09T01:36:03.890Z,16.30
2022-08-09T01:38:38.468Z,16.30
2022-08-09T01:41:14.316Z,16.20
2022-08-09T01:43:51.964Z,16.20
2022-08-09T01:46:26.528Z,16.20
2022-08-09T01:49:00.319Z,16.20
2022-08-09T01:51:42.727Z,16.20
2022-08-09T01:54:15.080Z,16.20
2022-08-09T01:56:47.163Z,16.10
2022-08-09T01:59:23.286Z,16.10
2022-08-09T02:02:00.205Z,16.00
2022-08-09T02:04:32.742Z,16.00
2022-08-09T02:07:17.803Z,15.90
2022-08-09T02:10:05.519Z,15.90
2022-08-09T02:12:36.061Z,15.90
2022-08-09T02:15:08.451Z,15.90
2022-08-09T02:18:09.910Z,15.90
2022-08-09T02:20:38.719Z,16.00
2022-08-09T02:23:09.820Z,16.00
2022-08-09T02:25:42.253Z,16.00
2022-08-09T02:28:19.902Z,16.00
2022-08-09T02:30:58.122Z,16.00
2022-08-09T02:33:38.265Z,16.00
2022-08-09T02:36:26.316Z,15.90
2022-08-09T02:38:56.642Z,15.90
2022-08-09T02:41:29.222Z,15.90
2022-08-09T02:44:06.619Z,15.80
2022-08-09T02:46:46.150Z,15.70
2022-08-09T02:49:27.397Z,15.50
2022-08-09T02:52:10.336Z,15.50
2022-08-09T02:54:54.199Z,15.40
2022-08-09T02:57:25.255Z,15.40
2022-08-09T03:00:21.407Z,15.30
2022-08-09T03:02:59.868Z,15.20
2022-08-09T03:05:34.750Z,15.10
2022-08-09T03:08:05.271Z,15.10
2022-08-09T03:10:36.619Z,15.10
2022-08-09T03:13:08.508Z,15.00
2022-08-09T03:16:04.901Z,15.00
2022-08-09T03:18:31.380Z,15.00
2022-08-09T03:21:02.831Z,15.00
2022-08-09T03:23:31.834Z,14.90
2022-08-09T03:26:03.401Z,14.80
2022-08-09T03:28:34.909Z,14.80
2022-08-09T03:31:10.028Z,14.70
2022-08-09T03:33:54.888Z,14.60
2022-08-09T03:36:27.816Z,14.60
2022-08-09T03:38:56.524Z,14.50
2022-08-09T03:41:44.681Z,14.50
2022-08-09T03:44:15.465Z,14.50
2022-08-09T03:46:44.760Z,14.40
2022-08-09T03:49:19.340Z,14.30
2022-08-09T03:52:00.045Z,14.30
2022-08-09T03:54:32.106Z,14.30
2022-08-09T03:57:04.475Z,14.20
2022-08-09T03:59:54.281Z,14.10
2022-08-09T04:02:30.356Z,14.20
2022-08-09T04:05:06.010Z,14.10
2022-08-09T04:07:53.615Z,14.20
2022-08-09T04:10:29.681Z,14.20
2022-08-09T04:13:01.286Z,14.30
2022-08-09T04:15:52.174Z,14.30
2022-08-09T04:18:21.883Z,14.40
2022-08-09T04:20:52.033Z,14.40
2022-08-09T04:23:24.522Z,14.50
2022-08-09T04:25:53.532Z,14.60
2022-08-09T04:28:31.394Z,14.60
2022-08-09T04:31:05.666Z,14.70
2022-08-09T04:33:51.929Z,14.70
2022-08-09T04:36:24.607Z,14.70
2022-08-09T04:38:52.967Z,14.70
2022-08-09T04:41:23.325Z,14.70
2022-08-09T04:44:06.915Z,14.70
2022-08-09T04:46:57.421Z,14.60
2022-08-09T04:49:52.423Z,14.60
2022-08-09T04:52:32.354Z,14.60
2022-08-09T04:55:04.689Z,14.60
2022-08-09T04:57:54.207Z,14.60
2022-08-09T05:00:24.603Z,14.70
2022-08-09T05:02:53.204Z,14.80
2022-08-09T05:05:31.925Z,14.90
2022-08-09T05:08:14.738Z,14.90
2022-08-09T05:10:43.739Z,15.00
2022-08-09T05:13:13.355Z,15.00
2022-08-09T05:15:48.058Z,15.10
2022-08-09T05:18:50.374Z,15.20
2022-08-09T05:21:13.547Z,15.20
2022-08-09T05:24:01.355Z,15.30
2022-08-09T05:26:37.581Z,15.40
2022-08-09T05:29:21.059Z,15.50
2022-08-09T05:31:56.177Z,15.60
2022-08-09T05:34:30.998Z,15.70
2022-08-09T05:37:04.813Z,15.80
2022-08-09T05:39:42.778Z,15.90
2022-08-09T05:42:21.198Z,16.00
2022-08-09T05:45:02.052Z,16.10
2022-08-09T05:47:33.245Z,16.20
2022-08-09T05:50:25.629Z,16.20
2022-08-09T05:52:53.365Z,16.30
2022-08-09T05:55:24.536Z,16.40
2022-08-09T05:57:57.183Z,16.50
2022-08-09T06:00:28.768Z,16.60
2022-08-09T06:02:58.862Z,16.60
2022-08-09T06:05:31.255Z,16.70
2022-08-09T06:08:19.864Z,16.80
2022-08-09T06:10:55.197Z,16.90
2022-08-09T06:13:24.735Z,17.00
2022-08-09T06:15:53.251Z,17.10
2022-08-09T06:18:23.929Z,17.10
2022-08-09T06:20:57.827Z,17.20
2022-08-09T06:23:55.185Z,17.30
2022-08-09T06:26:20.361Z,17.40
2022-08-09T06:29:00.368Z,17.50
2022-08-09T06:31:39.288Z,17.60
2022-08-09T06:34:23.389Z,17.70
2022-08-09T06:36:57.459Z,17.80
2022-08-09T06:39:49.320Z,17.90
2022-08-09T06:42:20.287Z,18.00
2022-08-09T06:44:54.328Z,18.10
2022-08-09T06:47:23.665Z,18.20
2022-08-09T06:50:14.128Z,18.30
2022-08-09T06:52:47.009Z,18.40
2022-08-09T06:55:17.743Z,18.50
2022-08-09T06:58:01.640Z,18.60
2022-08-09T07:00:51.004Z,18.70
2022-08-09T07:03:28.543Z,18.90
2022-08-09T07:06:04.478Z,19.00
2022-08-09T07:08:37.299Z,19.10
2022-08-09T07:11:08.147Z,19.30
2022-08-09T07:13:45.482Z,19.40
2022-08-09T07:16:40.447Z,19.50
2022-08-09T07:19:15.697Z,19.70
2022-08-09T07:21:55.812Z,19.80
2022-08-09T07:24:31.389Z,19.90
2022-08-09T07:27:02.414Z,20.00
2022-08-09T07:29:38.107Z,20.10
2022-08-09T07:32:10.902Z,20.10
2022-08-09T07:34:39.247Z,20.20
2022-08-09T07:37:15.644Z,20.30
2022-08-09T07:39:44.393Z,20.40
2022-08-09T07:42:14.847Z,20.50
2022-08-09T07:44:51.734Z,20.60
2022-08-09T07:47:23.385Z,20.70
2022-08-09T07:50:04.345Z,20.90
2022-08-09T07:52:35.889Z,21.00
2022-08-09T07:55:08.950Z,21.10
2022-08-09T07:57:46.801Z,21.20
2022-08-09T08:00:20.478Z,21.30
2022-08-09T08:03:08.120Z,21.40
2022-08-09T08:05:53.554Z,21.60
2022-08-09T08:09:01.898Z,21.70
2022-08-09T08:12:09.896Z,21.80
2022-08-09T08:14:01.288Z,21.90
2022-08-09T08:16:32.243Z,22.00
2022-08-09T08:19:03.249Z,22.20
2022-08-09T08:21:32.855Z,22.30
2022-08-09T08:24:11.403Z,22.40
2022-08-09T08:26:54.930Z,22.50
2022-08-09T08:29:27.732Z,22.60
2022-08-09T08:32:03.966Z,22.70
2022-08-09T08:34:36.252Z,22.80
2022-08-09T08:37:05.153Z,22.90
2022-08-09T08:39:43.511Z,23.00
2022-08-09T08:42:13.087Z,23.20
2022-08-09T08:44:43.243Z,23.30
2022-08-09T08:47:15.867Z,23.50
2022-08-09T08:49:47.197Z,23.60
2022-08-09T08:52:57.290Z,23.70
2022-08-09T08:55:07.390Z,23.90
2022-08-09T08:57:37.613Z,24.00
2022-08-09T09:00:20.352Z,24.10
2022-08-09T09:03:08.276Z,24.30
2022-08-09T09:06:01.199Z,24.50
2022-08-09T09:08:37.993Z,24.60
2022-08-09T09:11:13.783Z,24.70
2022-08-09T09:13:56.672Z,24.90
2022-08-09T09:16:32.265Z,25.10
2022-08-09T09:22:03.803Z,25.40
2022-08-09T09:24:34.853Z,25.60
2022-08-09T09:27:04.896Z,25.70
2022-08-09T09:29:58.098Z,25.80
2022-08-09T09:32:35.084Z,25.90
2022-08-09T09:35:09.155Z,26.10
2022-08-09T09:37:40.430Z,26.20
2022-08-09T09:40:11.774Z,26.40
2022-08-09T09:42:43.092Z,26.50
2022-08-09T09:45:26.414Z,26.70
2022-08-09T09:47:58.723Z,26.80
2022-08-09T09:50:50.569Z,26.90
2022-08-09T09:53:44.046Z,27.00
2022-08-09T09:56:31.260Z,27.10
2022-08-09T09:58:59.585Z,27.30
2022-08-09T10:01:31.103Z,27.40
2022-08-09T10:04:15.780Z,27.50
2022-08-09T10:06:51.892Z,27.50
2022-08-09T10:09:24.037Z,27.60
2022-08-09T10:12:14.714Z,27.60
2022-08-09T10:14:49.357Z,27.70
2022-08-09T10:17:40.362Z,27.80
2022-08-09T10:20:32.247Z,27.90
2022-08-09T10:23:20.498Z,28.10
2022-08-09T10:26:06.796Z,28.20
2022-08-09T10:28:39.985Z,28.30
2022-08-09T10:34:10.067Z,28.50
2022-08-09T10:36:46.984Z,28.80
2022-08-09T10:39:19.824Z,28.90
2022-08-09T10:41:49.600Z,29.00
2022-08-09T10:44:21.958Z,29.20
2022-08-09T10:48:11.881Z,29.20
2022-08-09T10:50:27.015Z,29.40
2022-08-09T10:53:21.229Z,29.70
2022-08-09T10:56:22.548Z,30.00
2022-08-09T10:58:54.058Z,30.20
2022-08-09T11:03:14.277Z,30.30
2022-08-09T11:04:32.525Z,30.60
2022-08-09T11:07:27.105Z,30.70
2022-08-09T11:10:15.405Z,31.00
2022-08-09T11:13:49.350Z,31.10
2022-08-09T11:16:35.652Z,31.30
2022-08-09T11:19:09.549Z,31.50
2022-08-09T11:21:56.997Z,31.60
2022-08-09T11:25:03.604Z,31.70
2022-08-09T11:28:02.837Z,31.70
2022-08-09T11:30:37.546Z,31.80
2022-08-09T11:33:13.013Z,31.90
2022-08-09T11:35:49.150Z,32.00
2022-08-09T11:38:22.046Z,32.20
2022-08-09T11:40:54.686Z,32.30
2022-08-09T11:43:42.599Z,32.60
2022-08-09T11:46:12.965Z,32.80
2022-08-09T11:48:57.597Z,33.10
2022-08-09T11:52:59.224Z,33.40
2022-08-09T11:54:27.668Z,33.50
2022-08-09T11:58:00.705Z,33.50
2022-08-09T12:00:27.724Z,33.80
2022-08-09T12:02:59.076Z,34.10
2022-08-09T12:05:42.087Z,34.20
2022-08-09T12:08:21.460Z,34.40
2022-08-09T12:10:53.114Z,34.40
2022-08-09T12:14:08.034Z,34.50
2022-08-09T12:16:30.431Z,34.60
2022-08-09T12:19:09.796Z,34.90
2022-08-09T12:21:48.661Z,34.90
2022-08-09T12:24:25.007Z,34.90
2022-08-09T12:28:59.389Z,35.00
2022-08-09T12:30:04.287Z,35.00
2022-08-09T12:32:45.026Z,35.30
2022-08-09T12:35:19.256Z,35.30
2022-08-09T12:37:52.001Z,35.70
2022-08-09T12:40:26.892Z,35.80
2022-08-09T12:42:56.213Z,36.00
2022-08-09T12:45:32.316Z,36.10
2022-08-09T12:48:04.235Z,35.70
2022-08-09T12:50:37.258Z,35.60
2022-08-09T12:53:17.498Z,35.80
2022-08-09T12:56:14.165Z,36.10
2022-08-09T12:58:35.118Z,36.30
2022-08-09T13:01:22.896Z,36.50
2022-08-09T13:04:01.912Z,36.80
2022-08-09T13:06:35.413Z,37.10
2022-08-09T13:09:11.296Z,37.40
2022-08-09T13:11:43.517Z,37.60
2022-08-09T13:14:41.301Z,37.60
2022-08-09T13:17:03.422Z,37.50
2022-08-09T13:20:06.831Z,37.60
2022-08-09T13:22:45.535Z,37.80
2022-08-09T13:25:14.961Z,37.70
2022-08-09T13:27:54.453Z,37.80
2022-08-09T13:30:50.704Z,37.90
2022-08-09T13:33:23.886Z,38.20
2022-08-09T13:36:37.643Z,38.30
2022-08-09T13:38:55.464Z,38.40
2022-08-09T13:41:58.442Z,38.90
2022-08-09T13:44:16.933Z,39.00
2022-08-09T13:47:27.536Z,39.00
2022-08-09T13:49:39.674Z,38.90
2022-08-09T13:52:23.799Z,38.90
2022-08-09T13:55:00.043Z,39.10
2022-08-09T13:57:36.538Z,39.20
2022-08-09T14:00:12.058Z,39.40
2022-08-09T14:03:03.910Z,39.30
2022-08-09T14:05:58.697Z,39.50
2022-08-09T14:08:19.458Z,39.90
2022-08-09T14:10:53.105Z,39.90
2022-08-09T14:14:14.841Z,39.80
2022-08-09T14:16:16.907Z,39.90
2022-08-09T14:18:49.552Z,39.90
2022-08-09T14:21:20.979Z,39.90
2022-08-09T14:23:56.687Z,40.10
2022-08-09T14:26:30.450Z,40.00
2022-08-09T14:29:01.914Z,39.90
2022-08-09T14:31:36.012Z,40.00
2022-08-09T14:34:30.891Z,40.20
2022-08-09T14:37:02.446Z,40.20
2022-08-09T14:39:40.057Z,40.40
2022-08-09T14:42:28.710Z,40.50
2022-08-09T14:46:57.171Z,40.40
2022-08-09T14:47:58.826Z,40.20
2022-08-09T14:50:30.407Z,40.10
2022-08-09T14:52:59.566Z,39.80
2022-08-09T14:55:32.183Z,39.60
2022-08-09T14:58:04.804Z,39.70
2022-08-09T15:00:34.278Z,39.90
2022-08-09T15:03:06.761Z,39.90
2022-08-09T15:05:36.524Z,39.90
2022-08-09T15:08:05.524Z,39.60
2022-08-09T15:10:35.239Z,38.60
2022-08-09T15:13:06.019Z,38.20
2022-08-09T15:15:39.263Z,38.30
2022-08-09T15:18:12.289Z,38.50
2022-08-09T15:21:56.064Z,38.30
2022-08-09T15:24:09.327Z,38.10
2022-08-09T15:26:30.881Z,37.90
2022-08-09T15:29:04.679Z,38.00
2022-08-09T15:31:41.288Z,38.10
2022-08-09T15:34:18.345Z,38.10
2022-08-09T15:37:03.966Z,38.10
2022-08-09T15:39:43.914Z,38.10
2022-08-09T15:42:21.997Z,37.80
2022-08-09T15:44:51.707Z,37.80
2022-08-09T15:47:22.770Z,37.80
2022-08-09T15:50:04.046Z,37.40
2022-08-09T15:52:35.462Z,37.00
2022-08-09T15:55:05.765Z,36.80
2022-08-09T15:57:44.317Z,36.60
2022-08-09T16:00:26.214Z,36.20
2022-08-09T16:02:57.124Z,35.90
2022-08-09T16:05:47.588Z,35.40
2022-08-09T16:08:30.689Z,35.00
2022-08-09T16:11:01.688Z,34.70
2022-08-09T16:14:02.714Z,34.40
2022-08-09T16:16:26.166Z,34.20
2022-08-09T16:18:56.646Z,33.90
2022-08-09T16:21:26.399Z,33.70
2022-08-09T16:24:02.385Z,33.50
2022-08-09T16:26:34.594Z,33.30
2022-08-09T16:29:11.465Z,33.00
2022-08-09T16:32:19.941Z,32.80
2022-08-09T16:34:55.967Z,32.70
2022-08-09T16:37:53.468Z,32.50
2022-08-09T16:40:11.606Z,32.30
2022-08-09T16:42:44.816Z,32.20
2022-08-09T16:45:17.585Z,32.10
2022-08-09T16:48:50.808Z,32.00
2022-08-09T16:50:38.271Z,31.90
2022-08-09T16:53:08.803Z,31.80
2022-08-09T16:55:58.290Z,31.70
2022-08-09T16:58:26.104Z,31.60
2022-08-09T17:00:54.973Z,31.50
2022-08-09T17:03:25.137Z,31.50
2022-08-09T17:06:08.404Z,31.40
2022-08-09T17:09:01.046Z,31.30
2022-08-09T17:11:41.570Z,31.20
2022-08-09T17:14:26.117Z,31.10
2022-08-09T17:16:59.654Z,31.00
2022-08-09T17:20:05.123Z,31.00
2022-08-09T17:22:24.769Z,30.90
2022-08-09T17:25:02.549Z,30.80
2022-08-09T17:27:32.747Z,30.70
2022-08-09T17:30:04.559Z,30.70
2022-08-09T17:32:35.003Z,30.60
2022-08-09T17:35:12.419Z,30.50
2022-08-09T17:38:11.306Z,30.40
2022-08-09T17:40:32.774Z,30.40
2022-08-09T17:43:10.792Z,30.30
2022-08-09T17:46:03.416Z,30.30
2022-08-09T17:48:39.156Z,30.20
2022-08-09T17:51:18.062Z,30.10
2022-08-09T17:53:53.409Z,30.00
2022-08-09T17:56:27.840Z,30.00
2022-08-09T17:58:58.159Z,29.90
2022-08-09T18:02:03.753Z,29.80
2022-08-09T18:04:14.740Z,29.70
2022-08-09T18:06:54.190Z,29.70
2022-08-09T18:09:24.963Z,29.60
2022-08-09T18:12:14.898Z,29.50
2022-08-09T18:14:49.900Z,29.50
2022-08-09T18:18:01.320Z,29.40
2022-08-09T18:20:53.815Z,29.30
2022-08-09T18:22:59.784Z,29.20
2022-08-09T18:25:50.869Z,29.20
2022-08-09T18:30:39.810Z,29.10
2022-08-09T18:31:12.536Z,28.90
2022-08-09T18:33:40.812Z,28.80
2022-08-09T18:36:14.423Z,28.70
2022-08-09T18:39:01.914Z,28.60
2022-08-09T18:41:34.813Z,28.50
2022-08-09T18:44:13.227Z,28.30
2022-08-09T18:46:49.452Z,28.20
2022-08-09T18:49:28.211Z,28.00
2022-08-09T18:52:00.697Z,27.90
2022-08-09T18:54:30.565Z,27.80
2022-08-09T18:57:06.214Z,27.60
2022-08-09T18:59:51.218Z,27.40
2022-08-09T19:02:21.202Z,27.40
2022-08-09T19:05:00.967Z,27.20
2022-08-09T19:07:33.437Z,27.10
2022-08-09T19:10:14.074Z,26.90
2022-08-09T19:12:51.457Z,26.80
2022-08-09T19:15:33.276Z,26.50
2022-08-09T19:18:05.390Z,26.30
2022-08-09T19:20:38.997Z,26.00
2022-08-09T19:23:08.313Z,25.80
2022-08-09T19:26:01.886Z,25.50
2022-08-09T19:28:33.933Z,25.20
2022-08-09T19:31:07.622Z,24.90
2022-08-09T19:33:36.124Z,24.80
2022-08-09T19:36:04.976Z,24.60
2022-08-09T19:38:35.352Z,24.40
2022-08-09T19:41:09.451Z,24.30
2022-08-09T19:43:57.845Z,24.10
2022-08-09T19:46:35.831Z,24.00
2022-08-09T19:50:09.569Z,23.90
2022-08-09T19:52:03.273Z,23.80
2022-08-09T19:54:31.428Z,23.70
2022-08-09T19:57:01.284Z,23.60
2022-08-09T19:59:58.965Z,23.50
2022-08-09T20:04:12.207Z,23.40
2022-08-09T20:05:14.570Z,23.30
2022-08-09T20:08:00.230Z,23.20
2022-08-09T20:10:34.294Z,23.00
2022-08-09T20:13:06.865Z,22.90
2022-08-09T20:16:35.104Z,22.80
2022-08-09T20:18:27.916Z,22.80
2022-08-09T20:20:56.689Z,22.70
2022-08-09T20:23:38.975Z,22.60
2022-08-09T20:26:09.959Z,22.40
2022-08-09T20:28:49.805Z,22.30
2022-08-09T20:31:18.807Z,22.10
2022-08-09T20:33:58.160Z,21.90
2022-08-09T20:36:27.258Z,21.90
2022-08-09T20:39:27.601Z,21.80
2022-08-09T20:41:43.928Z,21.70
2022-08-09T20:44:13.491Z,21.70
2022-08-09T20:46:44.918Z,21.70
2022-08-09T20:49:16.071Z,21.70
2022-08-09T20:51:50.644Z,21.60
2022-08-09T20:54:19.200Z,21.50
2022-08-09T20:56:49.849Z,21.30
2022-08-09T20:59:50.373Z,21.30
2022-08-09T21:02:17.603Z,21.20
2022-08-09T21:05:56.563Z,21.10
2022-08-09T21:07:40.136Z,21.00
2022-08-09T21:10:11.596Z,20.90
2022-08-09T21:12:40.265Z,20.90
2022-08-09T21:15:13.010Z,20.70
2022-08-09T21:18:23.587Z,20.70
2022-08-09T21:20:30.725Z,20.50
2022-08-09T21:23:00.285Z,20.40
2022-08-09T21:25:55.348Z,20.30
2022-08-09T21:28:33.137Z,20.30
2022-08-09T21:31:16.461Z,20.30
2022-08-09T21:33:51.522Z,20.30
2022-08-09T21:36:22.939Z,20.20
2022-08-09T21:38:57.378Z,20.20
2022-08-09T21:42:05.773Z,20.20
2022-08-09T21:44:33.014Z,20.20
2022-08-09T21:47:05.739Z,20.10
2022-08-09T21:49:40.074Z,20.10
2022-08-09T21:52:17.180Z,20.10
2022-08-09T21:54:49.709Z,20.10
2022-08-09T21:57:37.777Z,20.00
2022-08-09T22:00:15.012Z,20.00
2022-08-09T22:02:51.252Z,20.00
2022-08-09T22:05:35.762Z,20.00
2022-08-09T22:08:13.647Z,20.00
2022-08-09T22:11:00.271Z,20.00
2022-08-09T22:13:34.554Z,20.10
2022-08-09T22:16:04.395Z,20.10
2022-08-09T22:18:37.612Z,20.10
2022-08-09T22:21:09.921Z,20.10
2022-08-09T22:24:01.200Z,20.00
2022-08-09T22:26:35.323Z,19.90
2022-08-09T22:29:09.314Z,19.90
2022-08-09T22:31:50.199Z,19.80
2022-08-09T22:34:26.837Z,19.70
2022-08-09T22:36:55.766Z,19.50
2022-08-09T22:39:57.482Z,19.40
2022-08-09T22:42:21.221Z,19.30
2022-08-09T22:45:00.192Z,19.30
2022-08-09T22:48:33.716Z,19.20
2022-08-09T22:50:30.909Z,19.10
2022-08-09T22:52:59.794Z,19.10
2022-08-09T22:56:06.348Z,19.10
2022-08-09T22:58:32.628Z,19.10
2022-08-09T23:01:02.688Z,19.10
2022-08-09T23:04:04.733Z,19.10
2022-08-09T23:06:35.841Z,18.90
2022-08-09T23:09:05.911Z,18.90
2022-08-09T23:11:34.260Z,18.80
2022-08-09T23:14:03.331Z,18.80
2022-08-09T23:16:32.204Z,18.70
2022-08-09T23:19:00.529Z,18.70
2022-08-09T23:21:34.296Z,18.60
2022-08-09T23:24:07.127Z,18.60
2022-08-09T23:26:36.415Z,18.60
2022-08-09T23:29:06.067Z,18.50
2022-08-09T23:31:34.468Z,18.50
2022-08-09T23:34:03.809Z,18.50
2022-08-09T23:36:35.083Z,18.40
2022-08-09T23:39:03.775Z,18.40
2022-08-09T23:41:32.109Z,18.30
2022-08-09T23:44:01.522Z,18.30
2022-08-09T23:46:31.210Z,18.30
2022-08-09T23:49:00.233Z,18.20
2022-08-09T23:51:29.497Z,18.10
2022-08-09T23:54:02.594Z,18.10
2022-08-09T23:56:52.631Z,18.10
2022-08-09T23:59:21.180Z,18.10
